createdAt,value
2023-02-06T00:01:23.896Z,7.07
2023-02-06T00:03:52.046Z,5.83
2023-02-06T00:06:21.210Z,6.97
2023-02-06T00:08:50.786Z,5.97
2023-02-06T00:11:18.715Z,6.30
2023-02-06T00:13:47.244Z,7.30
2023-02-06T00:16:19.438Z,5.73
2023-02-06T00:18:50.559Z,5.87
2023-02-06T00:21:20.334Z,6.47
2023-02-06T00:23:48.556Z,5.90
2023-02-06T00:26:18.509Z,5.47
2023-02-06T00:28:46.839Z,6.20
2023-02-06T00:31:16.118Z,5.27
2023-02-06T00:33:44.053Z,6.10
2023-02-06T00:36:12.008Z,5.25
2023-02-06T00:38:40.236Z,6.73
2023-02-06T00:41:08.363Z,5.10
2023-02-06T00:43:37.753Z,5.80
2023-02-06T00:46:05.933Z,5.30
2023-02-06T00:48:33.850Z,4.97
2023-02-06T00:51:01.789Z,5.35
2023-02-06T00:53:29.699Z,4.40
2023-02-06T00:55:57.606Z,4.80
2023-02-06T00:58:25.439Z,4.80
2023-02-06T01:00:55.241Z,4.20
2023-02-06T01:03:23.087Z,5.70
2023-02-06T01:05:51.072Z,5.53
2023-02-06T01:08:18.945Z,5.30
2023-02-06T01:10:46.960Z,4.87
2023-02-06T01:13:15.348Z,5.10
2023-02-06T01:15:43.396Z,5.20
2023-02-06T01:18:14.060Z,4.53
2023-02-06T01:20:42.278Z,4.87
2023-02-06T01:23:10.601Z,5.37
2023-02-06T01:25:38.641Z,4.67
2023-02-06T01:28:06.560Z,6.27
2023-02-06T01:30:34.594Z,6.00
2023-02-06T01:33:02.494Z,4.63
2023-02-06T01:35:31.809Z,4.77
2023-02-06T01:37:59.673Z,5.40
2023-02-06T01:40:27.602Z,4.83
2023-02-06T01:42:55.474Z,5.50
2023-02-06T01:45:44.435Z,5.77
2023-02-06T01:48:16.278Z,5.30
2023-02-06T01:50:49.104Z,5.37
2023-02-06T01:53:19.012Z,4.93
2023-02-06T01:55:49.093Z,4.40
2023-02-06T01:58:20.510Z,4.73
2023-02-06T02:00:49.798Z,4.30
2023-02-06T02:03:17.849Z,4.33
2023-02-06T02:05:48.607Z,4.20
2023-02-06T02:08:21.276Z,5.00
2023-02-06T02:10:49.574Z,6.73
2023-02-06T02:13:17.480Z,6.07
2023-02-06T02:15:59.943Z,4.47
2023-02-06T02:18:42.481Z,4.50
2023-02-06T02:21:52.049Z,5.07
2023-02-06T02:24:26.555Z,4.80
2023-02-06T02:27:23.181Z,5.37
2023-02-06T02:30:25.714Z,4.30
2023-02-06T02:33:38.033Z,6.23
2023-02-06T02:36:15.092Z,5.07
2023-02-06T02:38:55.256Z,4.30
2023-02-06T02:41:31.461Z,4.93
2023-02-06T02:44:05.708Z,4.80
2023-02-06T02:46:37.671Z,5.10
2023-02-06T02:49:10.392Z,5.50
2023-02-06T02:51:41.969Z,4.90
2023-02-06T02:54:10.531Z,4.80
2023-02-06T02:56:38.747Z,5.20
2023-02-06T02:59:11.908Z,5.70
2023-02-06T03:01:46.795Z,5.00
2023-02-06T03:04:19.196Z,5.17
2023-02-06T03:07:01.809Z,5.07
2023-02-06T03:09:41.048Z,6.10
2023-02-06T03:12:21.170Z,5.17
2023-02-06T03:14:55.848Z,8.07
2023-02-06T03:17:31.168Z,5.57
2023-02-06T03:20:02.362Z,5.70
2023-02-06T03:22:33.193Z,5.47
2023-02-06T03:25:03.721Z,5.97
2023-02-06T03:27:32.405Z,5.60
2023-02-06T03:30:04.069Z,5.53
2023-02-06T03:32:35.629Z,5.27
2023-02-06T03:35:08.510Z,8.10
2023-02-06T03:37:39.345Z,6.23
2023-02-06T03:40:09.426Z,5.40
2023-02-06T03:42:43.344Z,5.23
2023-02-06T03:45:16.938Z,5.87
2023-02-06T03:47:48.224Z,7.23
2023-02-06T03:50:17.109Z,7.13
2023-02-06T03:52:50.577Z,6.33
2023-02-06T03:55:21.240Z,7.60
2023-02-06T03:57:53.943Z,7.23
2023-02-06T04:00:22.185Z,7.70
2023-02-06T04:02:52.817Z,6.43
2023-02-06T04:05:21.366Z,6.30
2023-02-06T04:07:52.643Z,5.97
2023-02-06T04:10:20.784Z,5.80
2023-02-06T04:12:48.735Z,5.30
2023-02-06T04:15:16.980Z,5.70
2023-02-06T04:17:58.678Z,6.03
2023-02-06T04:20:28.235Z,5.50
2023-02-06T04:22:57.774Z,5.73
2023-02-06T04:25:26.097Z,5.23
2023-02-06T04:27:54.021Z,5.73
2023-02-06T04:30:22.257Z,5.73
2023-02-06T04:32:50.144Z,7.27
2023-02-06T04:35:18.394Z,5.43
2023-02-06T04:37:46.275Z,5.90
2023-02-06T04:40:15.558Z,6.03
2023-02-06T04:42:43.443Z,5.40
2023-02-06T04:45:11.413Z,7.03
2023-02-06T04:47:39.383Z,6.73
2023-02-06T04:50:08.309Z,8.13
2023-02-06T04:52:38.586Z,6.80
2023-02-06T04:55:06.934Z,7.27
2023-02-06T04:57:36.261Z,7.93
2023-02-06T05:00:05.159Z,9.67
2023-02-06T05:02:37.489Z,8.13
2023-02-06T05:05:05.831Z,8.20
2023-02-06T05:07:33.644Z,7.60
2023-02-06T05:10:01.669Z,8.73
2023-02-06T05:12:30.072Z,6.97
2023-02-06T05:14:59.448Z,8.50
2023-02-06T05:17:27.455Z,7.77
2023-02-06T05:19:58.297Z,8.43
2023-02-06T05:22:27.083Z,9.32
2023-02-06T05:24:55.147Z,8.07
2023-02-06T05:27:23.178Z,9.85
2023-02-06T05:29:51.176Z,8.50
2023-02-06T05:32:20.627Z,8.55
2023-02-06T05:34:48.511Z,8.98
2023-02-06T05:37:16.438Z,12.63
2023-02-06T05:39:44.346Z,9.02
2023-02-06T05:42:12.274Z,10.50
2023-02-06T05:44:40.178Z,10.18
2023-02-06T05:47:08.092Z,9.80
2023-02-06T05:49:39.573Z,10.88
2023-02-06T05:52:07.531Z,11.52
2023-02-06T05:54:35.401Z,12.00
2023-02-06T05:57:04.232Z,10.85
2023-02-06T05:59:32.466Z,10.23
2023-02-06T06:02:00.527Z,10.23
2023-02-06T06:04:28.650Z,8.50
2023-02-06T06:06:57.996Z,11.23
2023-02-06T06:09:26.015Z,8.63
2023-02-06T06:11:54.025Z,9.80
2023-02-06T06:14:21.921Z,9.23
2023-02-06T06:16:49.838Z,9.20
2023-02-06T06:19:17.674Z,9.33
2023-02-06T06:21:45.715Z,9.97
2023-02-06T06:24:15.048Z,12.57
2023-02-06T06:26:43.223Z,10.00
2023-02-06T06:29:11.100Z,11.90
2023-02-06T06:31:39.200Z,10.77
2023-02-06T06:34:07.193Z,9.97
2023-02-06T06:36:35.176Z,10.47
2023-02-06T06:39:04.677Z,11.03
2023-02-06T06:41:33.924Z,14.17
2023-02-06T06:44:02.119Z,13.97
2023-02-06T06:46:30.163Z,10.07
2023-02-06T06:48:58.098Z,17.03
2023-02-06T06:51:26.826Z,13.30
2023-02-06T06:53:54.897Z,11.30
2023-02-06T06:56:22.838Z,13.50
2023-02-06T06:58:52.111Z,12.53
2023-02-06T07:01:20.900Z,12.83
2023-02-06T07:03:49.106Z,16.53
2023-02-06T07:06:17.922Z,15.17
2023-02-06T07:08:45.841Z,12.23
2023-02-06T07:11:15.653Z,11.77
2023-02-06T07:13:44.289Z,10.97
2023-02-06T07:16:13.909Z,14.87
2023-02-06T07:18:43.046Z,9.80
2023-02-06T07:21:13.765Z,11.07
2023-02-06T07:23:41.707Z,7.80
2023-02-06T07:26:10.697Z,8.90
2023-02-06T07:28:38.707Z,10.63
2023-02-06T07:31:10.025Z,10.90
2023-02-06T07:33:39.409Z,10.37
2023-02-06T07:36:11.957Z,8.60
2023-02-06T07:38:40.146Z,10.40
2023-02-06T07:41:09.465Z,9.43
2023-02-06T07:43:39.562Z,8.87
2023-02-06T07:46:07.566Z,10.07
2023-02-06T07:48:35.775Z,8.73
2023-02-06T07:51:09.651Z,9.67
2023-02-06T07:53:38.835Z,7.60
2023-02-06T07:56:12.134Z,10.13
2023-02-06T07:58:40.721Z,9.57
2023-02-06T08:01:09.245Z,14.30
2023-02-06T08:03:38.769Z,11.93
2023-02-06T08:06:12.484Z,8.77
2023-02-06T08:08:40.595Z,8.80
2023-02-06T08:11:09.793Z,8.47
2023-02-06T08:13:37.812Z,8.43
2023-02-06T08:16:08.125Z,6.50
2023-02-06T08:18:37.382Z,6.03
2023-02-06T08:21:07.146Z,6.30
2023-02-06T08:23:36.632Z,6.57
2023-02-06T08:26:06.290Z,9.23
2023-02-06T08:28:35.197Z,11.47
2023-02-06T08:31:11.154Z,8.83
2023-02-06T08:33:39.470Z,13.67
2023-02-06T08:36:08.658Z,17.23
2023-02-06T08:38:38.374Z,9.13
2023-02-06T08:41:07.219Z,6.83
2023-02-06T08:43:35.026Z,8.77
2023-02-06T08:46:02.945Z,12.07
2023-02-06T08:48:30.910Z,7.80
2023-02-06T08:51:06.607Z,6.57
2023-02-06T08:53:34.608Z,5.53
2023-02-06T08:56:06.824Z,8.17
2023-02-06T08:58:35.357Z,6.63
2023-02-06T09:01:07.909Z,7.27
2023-02-06T09:03:36.137Z,8.77
2023-02-06T09:06:10.359Z,7.10
2023-02-06T09:08:39.126Z,4.80
2023-02-06T09:11:10.474Z,8.73
2023-02-06T09:13:39.456Z,6.77
2023-02-06T09:16:08.420Z,5.30
2023-02-06T09:18:36.660Z,5.77
2023-02-06T09:21:10.223Z,5.50
2023-02-06T09:23:38.928Z,8.53
2023-02-06T09:26:08.392Z,5.60
2023-02-06T09:28:36.344Z,5.10
2023-02-06T09:31:04.661Z,6.40
2023-02-06T09:33:32.735Z,6.00
2023-02-06T09:36:05.438Z,10.10
2023-02-06T09:38:33.778Z,19.47
2023-02-06T09:41:05.273Z,14.90
2023-02-06T09:43:35.802Z,8.57
2023-02-06T09:46:07.834Z,11.03
2023-02-06T09:48:39.524Z,8.50
2023-02-06T09:51:17.163Z,8.40
2023-02-06T09:53:59.065Z,5.60
2023-02-06T09:56:33.295Z,21.50
2023-02-06T09:59:10.622Z,7.90
2023-02-06T10:01:45.068Z,10.57
2023-02-06T10:04:34.089Z,8.33
2023-02-06T10:07:15.903Z,11.43
2023-02-06T10:09:48.471Z,4.83
2023-02-06T10:12:20.854Z,6.80
2023-02-06T10:14:54.477Z,14.17
2023-02-06T10:17:26.262Z,8.00
2023-02-06T10:20:00.454Z,16.33
2023-02-06T10:22:34.311Z,10.30
2023-02-06T10:25:17.882Z,9.80
2023-02-06T10:27:48.923Z,13.23
2023-02-06T10:30:21.101Z,6.10
2023-02-06T10:32:57.427Z,10.13
2023-02-06T10:35:45.683Z,7.57
2023-02-06T10:38:43.369Z,5.30
2023-02-06T10:41:21.201Z,9.20
2023-02-06T10:43:54.721Z,5.40
2023-02-06T10:46:48.348Z,6.33
2023-02-06T10:49:25.852Z,5.30
2023-02-06T10:51:56.941Z,4.83
2023-02-06T10:54:30.340Z,8.10
2023-02-06T10:57:01.745Z,5.50
2023-02-06T10:59:33.785Z,6.00
2023-02-06T11:02:26.476Z,7.47
2023-02-06T11:05:00.686Z,10.93
2023-02-06T11:07:32.338Z,8.63
2023-02-06T11:10:01.922Z,5.47
2023-02-06T11:12:34.822Z,6.90
2023-02-06T11:15:07.889Z,6.03
2023-02-06T11:17:37.349Z,5.40
2023-02-06T11:20:21.895Z,5.00
2023-02-06T11:22:53.179Z,5.20
2023-02-06T11:25:26.831Z,6.73
2023-02-06T11:27:55.590Z,8.60
2023-02-06T11:30:32.144Z,6.57
2023-02-06T11:33:05.893Z,18.67
2023-02-06T11:35:39.731Z,5.43
2023-02-06T11:38:17.038Z,8.13
2023-02-06T11:40:54.727Z,5.70
2023-02-06T11:43:24.557Z,5.80
2023-02-06T11:46:07.468Z,6.77
2023-02-06T11:48:40.248Z,8.47
2023-02-06T11:51:10.405Z,10.90
2023-02-06T11:53:39.230Z,11.47
2023-02-06T11:56:17.620Z,6.40
2023-02-06T11:58:46.423Z,7.30
2023-02-06T12:01:23.391Z,4.70
2023-02-06T12:03:59.338Z,6.67
2023-02-06T12:06:34.070Z,8.13
2023-02-06T12:09:04.107Z,4.90
2023-02-06T12:11:37.852Z,4.73
2023-02-06T12:14:11.211Z,15.33
2023-02-06T12:16:43.007Z,5.20
2023-02-06T12:19:18.543Z,9.67
2023-02-06T12:21:50.244Z,10.30
2023-02-06T12:24:28.690Z,6.20
2023-02-06T12:27:00.898Z,6.80
2023-02-06T12:29:35.153Z,8.13
2023-02-06T12:32:09.961Z,6.23
2023-02-06T12:34:50.301Z,6.03
2023-02-06T12:37:21.856Z,10.33
2023-02-06T12:39:52.503Z,9.60
2023-02-06T12:42:36.288Z,4.53
2023-02-06T12:45:12.311Z,5.80
2023-02-06T12:47:47.254Z,5.37
2023-02-06T12:50:22.916Z,7.10
2023-02-06T12:52:54.955Z,7.27
2023-02-06T12:55:28.228Z,7.93
2023-02-06T12:57:57.764Z,4.83
2023-02-06T13:00:50.833Z,6.53
2023-02-06T13:03:34.585Z,6.43
2023-02-06T13:06:14.057Z,5.50
2023-02-06T13:08:47.538Z,6.23
2023-02-06T13:11:27.736Z,16.97
2023-02-06T13:14:05.988Z,7.50
2023-02-06T13:16:51.908Z,7.93
2023-02-06T13:20:03.903Z,4.37
2023-02-06T13:22:49.511Z,8.57
2023-02-06T13:25:55.516Z,5.53
2023-02-06T13:29:09.677Z,5.30
2023-02-06T13:31:38.651Z,5.17
2023-02-06T13:34:17.476Z,6.77
2023-02-06T13:36:52.059Z,6.67
2023-02-06T13:39:30.637Z,9.77
2023-02-06T13:42:04.605Z,3.93
2023-02-06T13:44:37.592Z,4.77
2023-02-06T13:47:26.738Z,5.47
2023-02-06T13:50:37.702Z,5.23
2023-02-06T13:53:21.470Z,4.93
2023-02-06T13:56:03.517Z,5.03
2023-02-06T13:58:45.633Z,3.80
2023-02-06T14:01:16.989Z,7.80
2023-02-06T14:03:48.329Z,7.97
2023-02-06T14:06:31.251Z,4.47
2023-02-06T14:09:10.433Z,5.57
2023-02-06T14:12:13.107Z,4.43
2023-02-06T14:14:59.794Z,5.03
2023-02-06T14:17:41.126Z,6.43
2023-02-06T14:20:21.807Z,6.67
2023-02-06T14:23:00.111Z,8.27
2023-02-06T14:25:43.712Z,8.43
2023-02-06T14:28:43.372Z,5.67
2023-02-06T14:31:22.685Z,8.63
2023-02-06T14:34:05.255Z,7.40
2023-02-06T14:36:50.882Z,6.60
2023-02-06T14:40:04.392Z,7.13
2023-02-06T14:42:38.482Z,8.80
2023-02-06T14:45:10.119Z,10.23
2023-02-06T14:47:42.800Z,7.03
2023-02-06T14:50:19.938Z,8.57
2023-02-06T14:52:52.769Z,4.90
2023-02-06T14:55:31.721Z,6.03
2023-02-06T14:58:00.258Z,5.67
2023-02-06T15:00:30.336Z,7.60
2023-02-06T15:03:06.673Z,7.17
2023-02-06T15:05:35.640Z,14.47
2023-02-06T15:08:06.673Z,8.10
2023-02-06T15:10:37.619Z,14.77
2023-02-06T15:13:06.135Z,8.40
2023-02-06T15:15:36.600Z,9.07
2023-02-06T15:18:06.966Z,10.87
2023-02-06T15:20:40.255Z,10.47
2023-02-06T15:23:18.101Z,4.77
2023-02-06T15:26:06.508Z,8.07
2023-02-06T15:28:38.056Z,9.93
2023-02-06T15:31:18.335Z,8.17
2023-02-06T15:33:49.837Z,6.77
2023-02-06T15:36:26.247Z,12.30
2023-02-06T15:38:57.909Z,9.00
2023-02-06T15:41:28.725Z,11.43
2023-02-06T15:44:07.770Z,6.80
2023-02-06T15:46:39.090Z,8.60
2023-02-06T15:49:11.060Z,11.23
2023-02-06T15:51:50.121Z,7.20
2023-02-06T15:54:21.139Z,10.60
2023-02-06T15:56:52.105Z,10.70
2023-02-06T15:59:24.199Z,8.60
2023-02-06T16:01:56.615Z,7.90
2023-02-06T16:04:29.314Z,6.77
2023-02-06T16:07:05.341Z,8.30
2023-02-06T16:09:41.643Z,9.47
2023-02-06T16:12:10.698Z,11.57
2023-02-06T16:14:41.746Z,17.00
2023-02-06T16:17:26.564Z,10.97
2023-02-06T16:19:56.639Z,12.37
2023-02-06T16:22:28.492Z,11.37
2023-02-06T16:25:14.235Z,8.60
2023-02-06T16:27:45.711Z,9.93
2023-02-06T16:30:22.735Z,9.13
2023-02-06T16:32:55.375Z,8.33
2023-02-06T16:35:24.103Z,10.50
2023-02-06T16:37:54.294Z,10.57
2023-02-06T16:40:22.573Z,15.00
2023-02-06T16:42:52.095Z,8.93
2023-02-06T16:45:23.373Z,7.93
2023-02-06T16:47:53.284Z,9.67
2023-02-06T16:50:22.394Z,8.87
2023-02-06T16:52:52.841Z,8.13
2023-02-06T16:55:23.605Z,9.40
2023-02-06T16:57:54.344Z,13.63
2023-02-06T17:00:24.487Z,11.33
2023-02-06T17:02:54.716Z,11.90
2023-02-06T17:05:24.682Z,7.53
2023-02-06T17:07:54.203Z,11.03
2023-02-06T17:10:24.912Z,9.60
2023-02-06T17:12:53.438Z,9.67
2023-02-06T17:15:21.856Z,6.90
2023-02-06T17:17:49.777Z,7.90
2023-02-06T17:20:29.404Z,7.37
2023-02-06T17:22:57.336Z,9.90
2023-02-06T17:25:25.551Z,8.97
2023-02-06T17:27:53.944Z,5.17
2023-02-06T17:30:24.186Z,7.53
2023-02-06T17:32:52.362Z,8.07
2023-02-06T17:35:22.002Z,11.73
2023-02-06T17:37:51.479Z,9.37
2023-02-06T17:40:24.509Z,9.97
2023-02-06T17:42:52.734Z,11.90
2023-02-06T17:45:21.060Z,8.93
2023-02-06T17:47:49.224Z,10.20
2023-02-06T17:50:19.685Z,10.20
2023-02-06T17:52:49.215Z,12.50
2023-02-06T17:55:17.887Z,9.03
2023-02-06T17:57:46.098Z,20.47
2023-02-06T18:00:20.458Z,22.83
2023-02-06T18:02:48.369Z,21.77
2023-02-06T18:05:16.477Z,18.27
2023-02-06T18:07:44.820Z,12.67
2023-02-06T18:10:14.224Z,21.30
2023-02-06T18:12:42.431Z,20.70
2023-02-06T18:15:13.726Z,9.10
2023-02-06T18:17:43.012Z,16.73
2023-02-06T18:20:14.069Z,17.43
2023-02-06T18:22:42.134Z,13.83
2023-02-06T18:25:12.014Z,16.93
2023-02-06T18:27:42.875Z,19.13
2023-02-06T18:30:12.361Z,16.07
2023-02-06T18:32:41.678Z,14.63
2023-02-06T18:35:10.422Z,16.00
2023-02-06T18:37:39.041Z,17.20
2023-02-06T18:40:07.876Z,13.30
2023-02-06T18:42:54.577Z,14.70
2023-02-06T18:45:26.586Z,13.17
2023-02-06T18:47:55.671Z,7.77
2023-02-06T18:50:24.571Z,8.20
2023-02-06T18:52:52.844Z,11.27
2023-02-06T18:55:21.477Z,8.23
2023-02-06T18:57:49.891Z,9.27
2023-02-06T19:00:20.252Z,10.27
2023-02-06T19:02:50.150Z,10.70
2023-02-06T19:05:19.265Z,9.57
2023-02-06T19:07:50.677Z,9.77
2023-02-06T19:10:19.490Z,6.83
2023-02-06T19:12:47.988Z,8.80
2023-02-06T19:15:16.763Z,7.87
2023-02-06T19:17:45.331Z,5.87
2023-02-06T19:20:15.273Z,9.63
2023-02-06T19:22:43.407Z,7.17
2023-02-06T19:25:14.433Z,9.37
2023-02-06T19:27:42.996Z,7.83
2023-02-06T19:30:13.060Z,6.33
2023-02-06T19:32:41.246Z,7.17
2023-02-06T19:35:09.425Z,5.70
2023-02-06T19:37:38.706Z,9.37
2023-02-06T19:40:07.757Z,7.27
2023-02-06T19:42:35.924Z,11.17
2023-02-06T19:45:05.121Z,10.27
2023-02-06T19:47:33.105Z,7.47
2023-02-06T19:50:01.089Z,9.10
2023-02-06T19:52:29.117Z,9.70
2023-02-06T19:54:58.742Z,9.20
2023-02-06T19:57:26.882Z,10.30
2023-02-06T19:59:56.946Z,7.53
2023-02-06T20:02:24.855Z,7.33
2023-02-06T20:04:53.041Z,7.70
2023-02-06T20:07:21.655Z,6.87
2023-02-06T20:09:51.149Z,6.53
2023-02-06T20:12:20.440Z,4.90
2023-02-06T20:14:48.552Z,5.73
2023-02-06T20:17:18.185Z,7.37
2023-02-06T20:19:46.084Z,6.03
2023-02-06T20:22:15.076Z,4.60
2023-02-06T20:24:43.190Z,6.90
2023-02-06T20:27:12.799Z,5.00
2023-02-06T20:29:43.733Z,10.67
2023-02-06T20:32:12.086Z,8.30
2023-02-06T20:34:40.100Z,6.97
2023-02-06T20:37:09.481Z,5.13
2023-02-06T20:39:38.147Z,8.03
2023-02-06T20:42:06.106Z,9.43
2023-02-06T20:44:34.031Z,5.70
2023-02-06T20:47:03.666Z,6.40
2023-02-06T20:49:32.254Z,5.10
2023-02-06T20:52:00.319Z,5.80
2023-02-06T20:54:28.375Z,6.37
2023-02-06T20:56:56.269Z,5.20
2023-02-06T20:59:24.866Z,7.03
2023-02-06T21:01:52.952Z,5.13
2023-02-06T21:04:22.342Z,6.37
2023-02-06T21:06:50.307Z,5.23
2023-02-06T21:09:19.029Z,6.27
2023-02-06T21:11:49.076Z,5.47
2023-02-06T21:14:17.388Z,4.70
2023-02-06T21:16:45.440Z,5.97
2023-02-06T21:19:16.128Z,6.70
2023-02-06T21:21:46.560Z,4.80
2023-02-06T21:24:18.027Z,5.43
2023-02-06T21:26:45.920Z,5.97
2023-02-06T21:29:14.900Z,5.17
2023-02-06T21:31:44.197Z,5.67
2023-02-06T21:34:15.623Z,5.17
2023-02-06T21:36:45.945Z,5.63
2023-02-06T21:39:18.792Z,8.77
2023-02-06T21:41:47.782Z,7.87
2023-02-06T21:44:15.710Z,6.77
2023-02-06T21:46:43.612Z,7.93
2023-02-06T21:49:11.768Z,6.40
2023-02-06T21:51:40.382Z,6.90
2023-02-06T21:54:10.259Z,6.63
2023-02-06T21:56:39.221Z,7.50
2023-02-06T21:59:08.052Z,8.47
2023-02-06T22:01:38.261Z,7.23
2023-02-06T22:04:06.302Z,6.77
2023-02-06T22:06:37.027Z,7.57
2023-02-06T22:09:07.811Z,7.40
2023-02-06T22:11:38.828Z,7.60
2023-02-06T22:14:09.093Z,5.80
2023-02-06T22:16:37.316Z,7.50
2023-02-06T22:19:06.228Z,6.27
2023-02-06T22:21:35.914Z,6.10
2023-02-06T22:24:06.690Z,6.03
2023-02-06T22:26:38.459Z,16.37
2023-02-06T22:29:08.807Z,11.07
2023-02-06T22:31:38.388Z,17.20
2023-02-06T22:34:06.325Z,16.43
2023-02-06T22:36:34.763Z,11.90
2023-02-06T22:39:06.548Z,13.67
2023-02-06T22:41:35.521Z,13.53
2023-02-06T22:44:03.491Z,11.97
2023-02-06T22:46:35.201Z,9.60
2023-02-06T22:49:03.533Z,9.13
2023-02-06T22:51:31.461Z,10.03
2023-02-06T22:54:00.642Z,8.30
2023-02-06T22:56:31.723Z,7.40
2023-02-06T22:59:01.767Z,6.63
2023-02-06T23:01:33.248Z,5.43
2023-02-06T23:04:02.717Z,4.83
2023-02-06T23:06:32.202Z,5.73
2023-02-06T23:09:01.602Z,5.87
2023-02-06T23:11:31.535Z,6.27
2023-02-06T23:14:01.593Z,5.60
2023-02-06T23:16:31.689Z,6.10
2023-02-06T23:19:01.985Z,5.27
2023-02-06T23:21:29.904Z,5.53
2023-02-06T23:23:59.665Z,6.07
2023-02-06T23:26:28.169Z,5.70
2023-02-06T23:28:57.646Z,7.70
2023-02-06T23:31:25.945Z,6.50
2023-02-06T23:33:54.234Z,5.47
2023-02-06T23:36:26.783Z,5.90
2023-02-06T23:38:55.356Z,4.80
2023-02-06T23:41:26.689Z,5.57
2023-02-06T23:43:56.474Z,6.07
2023-02-06T23:46:24.850Z,5.50
2023-02-06T23:48:53.438Z,5.23
2023-02-06T23:51:24.169Z,5.83
2023-02-06T23:53:52.668Z,6.10
2023-02-06T23:56:23.981Z,7.37
2023-02-06T23:58:52.893Z,5.60
